Time;durP1;ratioP1;P1;durP2;ratioP2;P2;SDS_P1;SDS_P2;PMS_P1;PMS_P2;Temp;Humidity;BMP_temperature;BMP_pressure;BME280_temperature;BME280_humidity;BME280_pressure;Samples;Min_cycle;Max_cycle;Signal;HPM_P1;HPM_P2
2022/03/16 00:00:39;;;;;;;;;;;;;;;-1.19;53.64;102336.94;1690286;84;25803;-59
2022/03/16 00:03:07;;;;;;;;;;;;;;;-1.20;53.93;102338.72;1665191;85;25879;-59
2022/03/16 00:05:35;;;;;;;;;;;;;;;-1.21;53.48;102334.79;1686275;85;25628;-59
2022/03/16 00:08:01;;;;;;;;;;;;;;;-1.21;53.38;102330.83;1686595;85;27821;-59
2022/03/16 00:10:27;;;;;;;;;;;;;;;-1.20;53.54;102314.95;1686365;85;25776;-59
2022/03/16 00:12:54;;;;;;;;;;;;;;;-1.20;53.53;102314.95;1686489;85;25776;-60
2022/03/16 00:15:20;;;;;;;;;;;;;;;-1.25;53.50;102307.52;1685974;85;25839;-59
2022/03/16 00:17:47;;;;;;;;;;;;;;;-1.29;53.57;102315.94;1686185;83;25801;-59
2022/03/16 00:20:13;;;;;;;;;;;;;;;-1.32;53.50;102312.47;1686169;85;27495;-59
2022/03/16 00:22:41;;;;;;;;;;;;;;;-1.32;53.42;102304.13;1686188;85;25799;-60
2022/03/16 00:25:09;;;;;;;;;;;;;;;-1.36;53.25;102297.13;1699843;83;25749;-60
2022/03/16 00:27:36;;;;;;;;;;;;;;;-1.39;53.30;102298.94;1718565;83;25925;-60
2022/03/16 00:30:04;;;;;;;;;;;;;;;-1.43;53.09;102294.16;1715265;83;25712;-58
2022/03/16 00:32:30;;;;;;;;;;;;;;;-1.44;53.24;102294.61;1715408;82;28241;-59
2022/03/16 00:34:57;;;;;;;;;;;;;;;-1.46;53.20;102293.75;1695073;83;25745;-59
2022/03/16 00:37:24;;;;;;;;;;;;;;;-1.49;53.13;102289.83;1687907;85;25750;-58
2022/03/16 00:39:51;;;;;;;;;;;;;;;-1.53;53.18;102289.46;1687786;85;25809;-59
2022/03/16 00:42:17;;;;;;;;;;;;;;;-1.54;52.95;102288.14;1687499;84;25736;-59
2022/03/16 00:44:44;;;;;;;;;;;;;;;-1.55;53.51;102283.32;1687892;85;27566;-58
2022/03/16 00:47:11;;;;;;;;;;;;;;;-1.54;53.70;102278.47;1687664;85;25789;-58
2022/03/16 00:49:37;;;;;;;;;;;;;;;-1.55;53.89;102272.77;1684279;84;25790;-59
2022/03/16 00:52:05;;;;;;;;;;;;;;;-1.57;53.46;102266.63;1651816;87;25822;-59
2022/03/16 00:54:33;;;;;;;;;;;;;;;-1.60;53.36;102264.02;1680825;84;25790;-59
2022/03/16 00:57:02;;;;;;;;;;;;;;;-1.64;53.61;102253.95;1649375;87;27552;-60
2022/03/16 00:59:29;;;;;;;;;;;;;;;-1.66;53.67;102253.09;1656238;86;25742;-59
2022/03/16 01:01:57;;;;;;;;;;;;;;;-1.68;54.34;102250.95;1657416;86;25673;-59
2022/03/16 01:04:24;;;;;;;;;;;;;;;-1.73;53.89;102250.12;1657367;86;25909;-59
2022/03/16 01:06:53;;;;;;;;;;;;;;;-1.86;54.00;102250.73;1657366;85;25801;-60
2022/03/16 01:09:20;;;;;;;;;;;;;;;-1.91;53.71;102238.06;1656020;85;28326;-60
2022/03/16 01:11:50;;;;;;;;;;;;;;;-1.95;53.75;102230.63;1652160;86;25751;-58
2022/03/16 01:14:17;;;;;;;;;;;;;;;-1.96;53.91;102230.20;1647247;87;25537;-59
2022/03/16 01:16:44;;;;;;;;;;;;;;;-2.01;54.01;102221.92;1647367;87;25880;-58
2022/03/16 01:19:15;;;;;;;;;;;;;;;-2.03;54.24;102214.47;1647431;87;25855;-59
2022/03/16 01:21:40;;;;;;;;;;;;;;;-2.05;54.15;102217.13;1647244;86;27686;-59
2022/03/16 01:24:09;;;;;;;;;;;;;;;-2.07;54.19;102216.27;1647864;86;25828;-58
2022/03/16 01:26:37;;;;;;;;;;;;;;;-2.08;54.71;102214.09;1652065;87;25771;-59
2022/03/16 01:29:04;;;;;;;;;;;;;;;-2.08;54.67;102212.78;1652176;86;25769;-59
2022/03/16 01:31:31;;;;;;;;;;;;;;;-2.03;54.63;102218.00;1652464;87;25666;-60
2022/03/16 01:33:57;;;;;;;;;;;;;;;-2.01;54.50;102211.38;1652108;86;27512;-59
2022/03/16 01:36:24;;;;;;;;;;;;;;;-1.98;54.62;102211.34;1652050;86;25718;-59
2022/03/16 01:38:51;;;;;;;;;;;;;;;-1.98;54.52;102213.98;1652353;86;25734;-60
2022/03/16 01:41:17;;;;;;;;;;;;;;;-1.96;54.78;102212.17;1652296;86;25714;-59
2022/03/16 01:43:44;;;;;;;;;;;;;;;-1.96;54.62;102208.22;1652213;87;26318;-59
2022/03/16 01:46:12;;;;;;;;;;;;;;;-1.96;54.67;102210.85;1652330;86;27517;-60
2022/03/16 01:48:39;;;;;;;;;;;;;;;-1.97;54.59;102207.81;1652362;86;26373;-60
2022/03/16 01:51:06;;;;;;;;;;;;;;;-1.99;54.89;102204.32;1664929;85;25759;-59
2022/03/16 01:53:33;;;;;;;;;;;;;;;-2.03;55.02;102211.40;1665779;86;25810;-59
2022/03/16 01:56:00;;;;;;;;;;;;;;;-2.01;55.25;102209.59;1665687;85;25614;-59
2022/03/16 01:58:27;;;;;;;;;;;;;;;-1.99;55.10;102206.50;1677990;84;28119;-59
2022/03/16 02:00:55;;;;;;;;;;;;;;;-2.01;55.36;102212.23;1691545;84;25781;-59
2022/03/16 02:03:22;;;;;;;;;;;;;;;-2.03;55.04;102220.63;1692938;84;25756;-59
2022/03/16 02:05:49;;;;;;;;;;;;;;;-2.03;54.90;102214.47;1693104;84;26896;-59
2022/03/16 02:08:18;;;;;;;;;;;;;;;-2.09;55.05;102211.03;1681457;84;25888;-60
2022/03/16 02:10:45;;;;;;;;;;;;;;;-2.09;54.76;102216.30;1671741;85;27479;-60
2022/03/16 02:13:12;;;;;;;;;;;;;;;-2.14;54.97;102211.52;1673338;85;25779;-60
2022/03/16 02:15:39;;;;;;;;;;;;;;;-2.15;55.19;102212.86;1665617;86;25765;-60
2022/03/16 02:18:06;;;;;;;;;;;;;;;-2.23;55.00;102203.28;1666135;86;25846;-60
2022/03/16 02:20:33;;;;;;;;;;;;;;;-2.25;54.99;102198.47;1665759;86;25784;-60
2022/03/16 02:23:02;;;;;;;;;;;;;;;-2.27;55.18;102202.88;1665885;86;27570;-60
2022/03/16 02:25:30;;;;;;;;;;;;;;;-2.29;55.14;102198.52;1682207;84;25800;-60
2022/03/16 02:27:57;;;;;;;;;;;;;;;-2.31;55.15;102195.03;1686264;84;25663;-60
2022/03/16 02:30:27;;;;;;;;;;;;;;;-2.34;55.45;102191.98;1682670;84;25901;-60
2022/03/16 02:32:54;;;;;;;;;;;;;;;-2.34;57.03;102190.67;1692770;84;25877;-59
2022/03/16 02:35:21;;;;;;;;;;;;;;;-2.36;55.68;102187.17;1690589;84;28223;-59
2022/03/16 02:37:48;;;;;;;;;;;;;;;-2.41;55.95;102175.37;1690679;84;25503;-59
2022/03/16 02:40:20;;;;;;;;;;;;;;;-2.38;56.04;102174.48;1687513;84;25737;-59
2022/03/16 02:42:48;;;;;;;;;;;;;;;-2.43;55.91;102171.02;1691813;84;25854;-59
2022/03/16 02:45:15;;;;;;;;;;;;;;;-2.48;55.93;102175.02;1690358;84;26067;-59
2022/03/16 02:47:42;;;;;;;;;;;;;;;-2.57;55.73;102179.96;1689320;84;27511;-59
2022/03/16 02:50:10;;;;;;;;;;;;;;;-2.65;56.21;102175.23;1687826;84;25836;-58
2022/03/16 02:52:37;;;;;;;;;;;;;;;-2.70;56.43;102179.66;1674779;85;26403;-59
2022/03/16 02:55:07;;;;;;;;;;;;;;;-2.80;56.64;102168.35;1669500;86;25769;-59
2022/03/16 02:57:33;;;;;;;;;;;;;;;-2.83;56.55;102168.38;1680746;85;25754;-59
2022/03/16 03:00:00;;;;;;;;;;;;;;;-2.79;56.74;102161.31;1681203;85;28111;-59
2022/03/16 03:02:26;;;;;;;;;;;;;;;-2.79;56.83;102162.63;1680783;83;25487;-59
2022/03/16 03:04:53;;;;;;;;;;;;;;;-2.78;56.94;102157.79;1680900;85;25724;-59
2022/03/16 03:07:19;;;;;;;;;;;;;;;-2.77;56.59;102155.59;1680780;85;25849;-59
2022/03/16 03:09:46;;;;;;;;;;;;;;;-2.76;56.92;102162.14;1681182;85;25751;-60
2022/03/16 03:12:13;;;;;;;;;;;;;;;-2.73;56.86;102159.48;1680873;85;27407;-60
2022/03/16 03:14:39;;;;;;;;;;;;;;;-2.75;56.88;102158.63;1680641;85;27260;-59
2022/03/16 03:17:07;;;;;;;;;;;;;;;-2.76;57.57;102163.46;1672948;85;25765;-60
2022/03/16 03:19:33;;;;;;;;;;;;;;;-2.77;57.36;102166.98;1664602;86;25767;-59
2022/03/16 03:22:00;;;;;;;;;;;;;;;-2.81;57.02;102163.08;1675888;85;25775;-59
2022/03/16 03:24:27;;;;;;;;;;;;;;;-2.81;57.09;102163.08;1674212;83;27495;-59
2022/03/16 03:26:54;;;;;;;;;;;;;;;-2.81;57.42;102162.66;1650470;87;25743;-58
2022/03/16 03:29:21;;;;;;;;;;;;;;;-2.81;57.21;102164.39;1650423;87;25765;-59
2022/03/16 03:31:47;;;;;;;;;;;;;;;-2.82;57.20;102150.83;1650561;85;25806;-60
2022/03/16 03:34:14;;;;;;;;;;;;;;;-2.82;56.94;102143.78;1650652;87;25730;-58
2022/03/16 03:36:41;;;;;;;;;;;;;;;-2.87;56.91;102137.70;1650574;87;27443;-59
2022/03/16 03:39:08;;;;;;;;;;;;;;;-2.90;56.98;102130.68;1650409;87;25692;-59
2022/03/16 03:41:34;;;;;;;;;;;;;;;-2.89;57.04;102121.04;1650476;87;25456;-58
2022/03/16 03:44:01;;;;;;;;;;;;;;;-2.85;57.40;102127.58;1650313;86;25731;-60
2022/03/16 03:46:28;;;;;;;;;;;;;;;-2.80;58.23;102121.37;1650405;87;25751;-60
2022/03/16 03:48:54;;;;;;;;;;;;;;;-2.80;58.18;102122.26;1650511;87;27470;-60
2022/03/16 03:51:21;;;;;;;;;;;;;;;-2.81;58.13;102120.94;1653532;86;26616;-59
2022/03/16 03:53:48;;;;;;;;;;;;;;;-2.80;57.87;102118.31;1654434;86;25773;-59
2022/03/16 03:56:15;;;;;;;;;;;;;;;-2.78;57.67;102125.72;1654480;86;25812;-60
2022/03/16 03:58:42;;;;;;;;;;;;;;;-2.76;57.46;102128.36;1662429;85;26027;-60
2022/03/16 04:01:09;;;;;;;;;;;;;;;-2.72;57.80;102134.00;1663674;86;27504;-60
2022/03/16 04:03:35;;;;;;;;;;;;;;;-2.68;57.57;102138.36;1663381;85;25644;-60
2022/03/16 04:06:02;;;;;;;;;;;;;;;-2.66;57.55;102149.77;1663937;85;25715;-59
2022/03/16 04:08:28;;;;;;;;;;;;;;;-2.63;57.72;102148.85;1663469;85;26437;-60
2022/03/16 04:10:55;;;;;;;;;;;;;;;-2.59;58.11;102146.16;1643146;86;25803;-59
2022/03/16 04:13:22;;;;;;;;;;;;;;;-2.59;57.75;102134.73;1663525;86;27562;-59
2022/03/16 04:15:48;;;;;;;;;;;;;;;-2.58;57.65;102125.95;1663694;85;25710;-59
2022/03/16 04:18:14;;;;;;;;;;;;;;;-2.56;57.77;102127.70;1663642;85;25710;-60
2022/03/16 04:20:41;;;;;;;;;;;;;;;-2.56;57.98;102126.81;1663357;86;25756;-60
2022/03/16 04:23:07;;;;;;;;;;;;;;;-2.60;57.54;102130.38;1663514;86;25766;-60
2022/03/16 04:25:34;;;;;;;;;;;;;;;-2.76;57.35;102142.84;1668642;85;27529;-60
2022/03/16 04:28:00;;;;;;;;;;;;;;;-2.81;57.34;102127.09;1669955;86;25731;-60
2022/03/16 04:30:27;;;;;;;;;;;;;;;-2.83;57.97;102123.59;1661759;86;25730;-61
2022/03/16 04:32:53;;;;;;;;;;;;;;;-2.85;57.85;102134.16;1661440;86;25779;-61
2022/03/16 04:35:21;;;;;;;;;;;;;;;-2.84;58.14;102134.59;1661580;86;25757;-60
2022/03/16 04:37:48;;;;;;;;;;;;;;;-2.78;57.94;102137.58;1661680;86;28185;-60
2022/03/16 04:40:15;;;;;;;;;;;;;;;-2.70;57.79;102129.17;1661157;84;25727;-60
2022/03/16 04:42:42;;;;;;;;;;;;;;;-2.62;58.10;102133.02;1663328;85;26346;-59
2022/03/16 04:45:10;;;;;;;;;;;;;;;-2.54;58.38;102129.84;1663768;86;25827;-59
2022/03/16 04:47:37;;;;;;;;;;;;;;;-2.43;58.25;102134.12;1663557;85;25445;-60
2022/03/16 04:50:05;;;;;;;;;;;;;;;-2.36;58.34;102141.94;1663569;85;28260;-60
2022/03/16 04:52:32;;;;;;;;;;;;;;;-2.29;58.31;102140.53;1665438;84;25783;-60
2022/03/16 04:54:59;;;;;;;;;;;;;;;-2.23;58.33;102145.29;1657512;86;25736;-60
2022/03/16 04:57:26;;;;;;;;;;;;;;;-2.11;58.64;102164.48;1658985;86;26526;-59
2022/03/16 04:59:52;;;;;;;;;;;;;;;-2.03;58.13;102164.36;1665877;85;25684;-59
2022/03/16 05:02:19;;;;;;;;;;;;;;;-1.92;58.10;102161.14;1665751;86;27493;-59
2022/03/16 05:04:45;;;;;;;;;;;;;;;-1.82;58.04;102156.59;1665571;86;25685;-59
2022/03/16 05:07:12;;;;;;;;;;;;;;;-1.75;58.25;102164.41;1665726;85;25713;-59
2022/03/16 05:09:38;;;;;;;;;;;;;;;-1.69;57.78;102167.41;1665459;85;26246;-60
2022/03/16 05:12:06;;;;;;;;;;;;;;;-1.62;57.51;102165.09;1665983;85;25474;-61
2022/03/16 05:14:33;;;;;;;;;;;;;;;-1.61;57.42;102182.67;1665735;85;28311;-60
2022/03/16 05:16:59;;;;;;;;;;;;;;;-1.53;57.75;102189.59;1665636;86;25523;-61
2022/03/16 05:19:26;;;;;;;;;;;;;;;-1.44;58.15;102188.13;1666054;86;25757;-58
2022/03/16 05:21:53;;;;;;;;;;;;;;;-1.36;57.99;102202.08;1665976;86;26848;-59
2022/03/16 05:24:22;;;;;;;;;;;;;;;-1.24;57.73;102202.33;1665812;84;25700;-60
2022/03/16 05:26:48;;;;;;;;;;;;;;;-1.13;57.74;102196.89;1665758;86;27513;-60
2022/03/16 05:29:15;;;;;;;;;;;;;;;-1.04;57.81;102183.97;1666083;86;25835;-59
2022/03/16 05:31:41;;;;;;;;;;;;;;;-0.98;57.45;102172.85;1665947;86;25725;-59
2022/03/16 05:34:08;;;;;;;;;;;;;;;-0.98;57.38;102155.68;1665790;86;26434;-59
2022/03/16 05:36:35;;;;;;;;;;;;;;;-1.00;57.50;102125.77;1687815;85;25692;-59
2022/03/16 05:39:03;;;;;;;;;;;;;;;-1.02;57.75;102106.89;1690939;85;27879;-59
2022/03/16 05:41:31;;;;;;;;;;;;;;;-1.12;58.02;102115.45;1690697;85;25775;-59
2022/03/16 05:43:57;;;;;;;;;;;;;;;-1.27;57.66;102120.55;1690791;85;25778;-59
2022/03/16 05:46:24;;;;;;;;;;;;;;;-1.30;57.58;102117.95;1690733;85;25807;-59
2022/03/16 05:48:50;;;;;;;;;;;;;;;-1.27;57.67;102127.15;1690742;85;25416;-60
2022/03/16 05:51:17;;;;;;;;;;;;;;;-1.23;57.57;102135.89;1689676;84;28421;-59
2022/03/16 05:53:44;;;;;;;;;;;;;;;-1.19;57.38;102150.77;1688466;85;25704;-59
2022/03/16 05:56:10;;;;;;;;;;;;;;;-1.08;57.51;102166.45;1688738;85;25791;-60
2022/03/16 05:58:37;;;;;;;;;;;;;;;-1.01;57.58;102159.69;1675808;84;25817;-59
2022/03/16 06:01:03;;;;;;;;;;;;;;;-0.97;57.47;102144.22;1678868;85;25804;-60
2022/03/16 06:03:30;;;;;;;;;;;;;;;-0.96;57.23;102120.87;1659553;85;27550;-59
2022/03/16 06:05:56;;;;;;;;;;;;;;;-0.90;57.07;102123.84;1678826;84;25529;-60
2022/03/16 06:08:23;;;;;;;;;;;;;;;-0.77;57.33;102118.31;1679099;84;25828;-57
2022/03/16 06:10:50;;;;;;;;;;;;;;;-0.71;57.40;102115.53;1679149;84;26421;-59
2022/03/16 06:13:17;;;;;;;;;;;;;;;-0.65;57.43;102111.47;1679039;85;25747;-60
2022/03/16 06:15:44;;;;;;;;;;;;;;;-0.59;57.63;102106.52;1678990;85;27505;-59
2022/03/16 06:18:11;;;;;;;;;;;;;;;-0.49;57.66;102110.69;1678860;84;25836;-59
2022/03/16 06:20:37;;;;;;;;;;;;;;;-0.38;57.29;102110.02;1679096;85;25553;-58
2022/03/16 06:23:05;;;;;;;;;;;;;;;-0.27;56.94;102107.13;1679057;85;25908;-59
2022/03/16 06:25:33;;;;;;;;;;;;;;;-0.19;56.85;102095.08;1658510;85;25687;-58
2022/03/16 06:28:01;;;;;;;;;;;;;;;-0.12;56.61;102097.99;1647322;87;28220;-58
2022/03/16 06:30:28;;;;;;;;;;;;;;;-0.13;56.82;102102.00;1647537;87;25791;-58
2022/03/16 06:32:55;;;;;;;;;;;;;;;-0.11;57.05;102115.61;1647727;87;25735;-59
2022/03/16 06:35:22;;;;;;;;;;;;;;;-0.03;57.05;102092.50;1647321;87;25805;-59
2022/03/16 06:37:49;;;;;;;;;;;;;;;0.10;57.25;102073.70;1647659;87;26515;-59
2022/03/16 06:40:16;;;;;;;;;;;;;;;0.19;56.98;102072.16;1647543;87;27487;-58
2022/03/16 06:42:51;;;;;;;;;;;;;;;0.27;57.76;102094.48;1647487;87;25841;-58
2022/03/16 06:45:20;;;;;;;;;;;;;;;0.31;57.09;102103.60;1647912;86;25792;-59
2022/03/16 06:47:46;;;;;;;;;;;;;;;0.40;57.00;102111.79;1647608;87;25789;-59
2022/03/16 06:50:13;;;;;;;;;;;;;;;0.51;56.87;102100.06;1647993;87;25868;-59
2022/03/16 06:52:40;;;;;;;;;;;;;;;0.61;57.00;102099.78;1646230;86;27504;-59
2022/03/16 06:55:08;;;;;;;;;;;;;;;0.71;57.05;102106.17;1653457;86;25826;-57
2022/03/16 06:57:36;;;;;;;;;;;;;;;0.81;56.95;102126.22;1698814;84;25947;-59
2022/03/16 07:00:06;;;;;;;;;;;;;;;0.87;56.91;102134.47;1710872;83;26363;-59
2022/03/16 07:02:50;;;;;;;;;;;;;;;0.94;56.78;102121.47;1710771;84;25862;-59
2022/03/16 07:05:17;;;;;;;;;;;;;;;1.07;56.55;102116.70;1705974;84;27504;-60
2022/03/16 07:07:43;;;;;;;;;;;;;;;1.21;56.48;102134.89;1689770;84;26375;-59
2022/03/16 07:10:10;;;;;;;;;;;;;;;1.30;56.52;102153.66;1698120;83;25461;-58
2022/03/16 07:12:37;;;;;;;;;;;;;;;1.41;56.23;102171.45;1696901;84;25793;-58
2022/03/16 07:15:05;;;;;;;;;;;;;;;1.50;56.12;102170.34;1699871;84;25685;-57
2022/03/16 07:17:31;;;;;;;;;;;;;;;1.62;55.85;102165.14;1699410;83;27455;-59
2022/03/16 07:19:58;;;;;;;;;;;;;;;1.74;55.70;102168.77;1700198;83;25687;-59
2022/03/16 07:22:25;;;;;;;;;;;;;;;1.85;55.48;102171.11;1699946;84;25729;-59
2022/03/16 07:24:51;;;;;;;;;;;;;;;1.94;55.24;102167.30;1697513;83;25868;-59
2022/03/16 07:27:18;;;;;;;;;;;;;;;2.05;55.09;102170.97;1700687;84;26511;-59
2022/03/16 07:29:45;;;;;;;;;;;;;;;2.16;54.79;102164.41;1699371;84;27574;-60
2022/03/16 07:32:12;;;;;;;;;;;;;;;2.26;54.33;102164.98;1697937;84;25743;-58
2022/03/16 07:34:38;;;;;;;;;;;;;;;2.34;54.11;102176.23;1697700;84;25757;-58
2022/03/16 07:37:05;;;;;;;;;;;;;;;2.45;53.65;102177.68;1699884;84;26493;-59
2022/03/16 07:39:31;;;;;;;;;;;;;;;2.55;53.54;102177.80;1697522;84;25840;-59
2022/03/16 07:41:58;;;;;;;;;;;;;;;2.66;53.10;102173.45;1693041;84;27466;-59
2022/03/16 07:44:24;;;;;;;;;;;;;;;2.72;52.86;102174.61;1690275;85;25657;-58
2022/03/16 07:46:51;;;;;;;;;;;;;;;2.75;52.80;102157.69;1690370;84;25705;-58
2022/03/16 07:49:18;;;;;;;;;;;;;;;2.78;52.89;102157.12;1690315;85;26102;-59
2022/03/16 07:51:45;;;;;;;;;;;;;;;2.81;52.88;102159.69;1690785;84;25658;-59
2022/03/16 07:54:11;;;;;;;;;;;;;;;2.86;52.82;102152.88;1690389;84;27590;-59
2022/03/16 07:56:38;;;;;;;;;;;;;;;2.93;52.85;102146.88;1690825;84;25653;-59
2022/03/16 07:59:05;;;;;;;;;;;;;;;2.98;52.79;102139.16;1710985;83;25466;-59
2022/03/16 08:01:32;;;;;;;;;;;;;;;3.05;52.74;102137.63;1710859;84;25896;-58
2022/03/16 08:03:58;;;;;;;;;;;;;;;3.11;52.52;102144.05;1710752;83;25818;-58
2022/03/16 08:06:25;;;;;;;;;;;;;;;3.17;52.45;102154.46;1710844;84;27724;-58
2022/03/16 08:08:52;;;;;;;;;;;;;;;3.26;52.35;102158.60;1710652;83;25799;-59
2022/03/16 08:11:18;;;;;;;;;;;;;;;3.32;52.04;102169.02;1710823;83;25769;-59
2022/03/16 08:13:45;;;;;;;;;;;;;;;3.41;51.70;102151.84;1710831;84;25810;-58
2022/03/16 08:16:11;;;;;;;;;;;;;;;3.48;51.10;102144.50;1710740;84;25708;-59
2022/03/16 08:18:38;;;;;;;;;;;;;;;3.51;50.86;102146.59;1710885;84;27500;-59
2022/03/16 08:21:06;;;;;;;;;;;;;;;3.54;50.52;102145.16;1710798;84;25726;-59
2022/03/16 08:23:33;;;;;;;;;;;;;;;3.56;50.59;102152.63;1710827;83;25695;-58
2022/03/16 08:26:00;;;;;;;;;;;;;;;3.61;50.51;102151.13;1693188;83;25793;-59
2022/03/16 08:28:27;;;;;;;;;;;;;;;3.64;50.44;102154.12;1690765;85;26389;-58
2022/03/16 08:30:53;;;;;;;;;;;;;;;3.67;50.53;102152.70;1690238;85;27497;-60
2022/03/16 08:33:22;;;;;;;;;;;;;;;3.72;50.59;102151.56;1690296;84;25724;-57
2022/03/16 08:35:48;;;;;;;;;;;;;;;3.76;50.43;102154.53;1690240;83;25483;-58
2022/03/16 08:38:15;;;;;;;;;;;;;;;3.85;50.41;102160.44;1690835;84;26413;-59
2022/03/16 08:40:41;;;;;;;;;;;;;;;3.93;50.20;102157.02;1690355;85;25733;-59
2022/03/16 08:43:09;;;;;;;;;;;;;;;3.95;49.81;102160.49;1690441;85;27461;-58
2022/03/16 08:45:35;;;;;;;;;;;;;;;4.05;49.62;102142.34;1690243;83;25772;-58
2022/03/16 08:48:03;;;;;;;;;;;;;;;4.07;49.20;102161.36;1690632;85;25728;-59
2022/03/16 08:50:30;;;;;;;;;;;;;;;4.10;49.15;102156.38;1710098;83;25967;-59
2022/03/16 08:52:57;;;;;;;;;;;;;;;4.13;49.05;102153.56;1717501;83;26159;-59
2022/03/16 08:55:24;;;;;;;;;;;;;;;4.16;49.06;102160.11;1668543;84;27491;-57
2022/03/16 08:57:50;;;;;;;;;;;;;;;4.17;49.20;102153.02;1715200;83;25891;-60
2022/03/16 09:00:18;;;;;;;;;;;;;;;4.22;49.14;102161.67;1707426;83;25698;-59
2022/03/16 09:02:46;;;;;;;;;;;;;;;4.27;48.69;102161.02;1705909;83;25880;-59
2022/03/16 09:05:15;;;;;;;;;;;;;;;4.32;48.48;102163.05;1704390;83;25709;-59
2022/03/16 09:07:42;;;;;;;;;;;;;;;4.32;48.41;102163.49;1684543;85;27473;-59
2022/03/16 09:10:09;;;;;;;;;;;;;;;4.34;48.43;102168.30;1650687;87;25794;-58
2022/03/16 09:12:36;;;;;;;;;;;;;;;4.41;48.52;102175.59;1684264;85;25451;-59
2022/03/16 09:15:05;;;;;;;;;;;;;;;4.49;48.28;102179.67;1685773;84;26517;-60
2022/03/16 09:17:33;;;;;;;;;;;;;;;4.53;48.24;102177.30;1667329;85;25981;-57
2022/03/16 09:20:00;;;;;;;;;;;;;;;4.58;48.18;102162.45;1686525;84;27481;-59
2022/03/16 09:22:27;;;;;;;;;;;;;;;4.63;47.92;102162.27;1686707;84;25757;-59
2022/03/16 09:24:56;;;;;;;;;;;;;;;4.65;47.55;102170.59;1684733;84;25884;-58
2022/03/16 09:27:23;;;;;;;;;;;;;;;4.66;47.57;102175.48;1681804;83;25828;-59
2022/03/16 09:29:50;;;;;;;;;;;;;;;4.67;47.26;102189.18;1690885;85;25785;-58
2022/03/16 09:32:18;;;;;;;;;;;;;;;4.66;47.20;102194.99;1691300;83;28225;-59
2022/03/16 09:34:45;;;;;;;;;;;;;;;4.76;47.24;102187.47;1690899;83;25846;-59
2022/03/16 09:37:11;;;;;;;;;;;;;;;4.84;46.94;102180.50;1691174;85;25797;-59
2022/03/16 09:39:38;;;;;;;;;;;;;;;4.85;47.40;102169.75;1690870;84;25806;-59
2022/03/16 09:42:06;;;;;;;;;;;;;;;4.90;47.64;102163.38;1691086;85;25441;-58
2022/03/16 09:44:33;;;;;;;;;;;;;;;4.89;47.94;102165.16;1690762;83;28262;-59
2022/03/16 09:47:00;;;;;;;;;;;;;;;4.90;48.03;102163.38;1690613;85;25528;-57
2022/03/16 09:49:28;;;;;;;;;;;;;;;4.88;48.41;102170.56;1690642;83;25528;-57
2022/03/16 09:51:57;;;;;;;;;;;;;;;4.91;48.68;102180.63;1691009;83;26509;-56
2022/03/16 09:54:24;;;;;;;;;;;;;;;4.94;48.72;102190.30;1701037;84;25797;-57
2022/03/16 09:56:52;;;;;;;;;;;;;;;4.94;49.03;102192.52;1679469;85;27585;-58
2022/03/16 09:59:20;;;;;;;;;;;;;;;4.98;48.82;102179.91;1677679;85;25768;-59
2022/03/16 10:01:47;;;;;;;;;;;;;;;5.05;48.79;102174.72;1681213;85;25550;-58
2022/03/16 10:04:18;;;;;;;;;;;;;;;5.13;48.70;102177.91;1681141;85;25811;-56
2022/03/16 10:06:46;;;;;;;;;;;;;;;5.21;48.70;102176.27;1678393;85;25467;-57
2022/03/16 10:15:14;;;;;;;;;;;;;;;5.36;48.69;102181.84;1681404;85;25863;-59
2022/03/16 10:17:46;;;;;;;;;;;;;;;5.45;48.75;102176.11;1681086;85;26060;-58
2022/03/16 10:20:22;;;;;;;;;;;;;;;5.56;48.49;102169.83;1681021;84;25863;-58
2022/03/16 10:23:23;;;;;;;;;;;;;;;5.61;48.23;102173.63;1681102;85;27565;-58
2022/03/16 10:25:53;;;;;;;;;;;;;;;5.66;48.26;102189.44;1681123;84;25895;-57
2022/03/16 10:28:22;;;;;;;;;;;;;;;5.71;48.34;102193.64;1681258;85;26403;-57
2022/03/16 10:30:58;;;;;;;;;;;;;;;5.68;48.40;102188.42;1681195;85;26435;-58
2022/03/16 10:33:33;;;;;;;;;;;;;;;5.69;48.50;102198.17;1681484;85;25476;-57
2022/03/16 10:36:06;;;;;;;;;;;;;;;5.64;48.72;102213.06;1680744;84;27546;-57
2022/03/16 10:38:42;;;;;;;;;;;;;;;5.59;48.92;102219.09;1681075;84;25970;-58
2022/03/16 10:46:58;;;;;;;;;;;;;;;5.41;49.72;102212.74;1698425;83;26497;-59
2022/03/16 10:49:32;;;;;;;;;;;;;;;5.30;50.19;102197.66;1698404;84;27407;-58
2022/03/16 10:52:07;;;;;;;;;;;;;;;5.20;50.49;102214.55;1686941;83;25451;-59
2022/03/16 10:54:35;;;;;;;;;;;;;;;5.15;50.85;102217.89;1690821;83;25855;-58
2022/03/16 10:57:05;;;;;;;;;;;;;;;5.08;51.60;102219.05;1689652;84;26669;-58
2022/03/16 10:59:34;;;;;;;;;;;;;;;5.02;51.91;102224.17;1659017;84;26330;-57
2022/03/16 11:02:06;;;;;;;;;;;;;;;4.99;51.34;102213.66;1708054;83;28347;-57
2022/03/16 11:04:35;;;;;;;;;;;;;;;4.99;51.67;102210.99;1708123;84;25780;-57
2022/03/16 11:07:08;;;;;;;;;;;;;;;5.00;51.82;102212.73;1708164;83;25732;-58
2022/03/16 11:09:35;;;;;;;;;;;;;;;5.04;51.49;102216.13;1709441;83;26289;-58
2022/03/16 11:14:50;;;;;;;;;;;;;;;4.98;51.58;102216.77;1682102;85;28150;-57
2022/03/16 11:17:18;;;;;;;;;;;;;;;4.95;51.59;102225.38;1682289;85;25500;-58
2022/03/16 11:19:46;;;;;;;;;;;;;;;4.95;51.99;102229.38;1682062;84;25801;-58
2022/03/16 11:22:22;;;;;;;;;;;;;;;4.93;52.12;102241.92;1682327;84;25807;-58
2022/03/16 11:24:52;;;;;;;;;;;;;;;4.91;52.56;102242.45;1677356;83;25770;-58
2022/03/16 11:27:34;;;;;;;;;;;;;;;4.86;52.41;102244.82;1679938;85;27484;-58
2022/03/16 11:30:26;;;;;;;;;;;;;;;4.84;52.71;102246.67;1680514;85;25737;-58
2022/03/16 11:32:57;;;;;;;;;;;;;;;4.80;52.64;102253.08;1680498;85;25761;-59
2022/03/16 11:35:32;;;;;;;;;;;;;;;4.78;52.80;102256.27;1680552;85;27980;-58
2022/03/16 11:38:10;;;;;;;;;;;;;;;4.73;53.21;102248.94;1680703;85;25452;-59
2022/03/16 11:40:43;;;;;;;;;;;;;;;4.72;53.26;102247.64;1680310;85;27468;-58
2022/03/16 11:43:15;;;;;;;;;;;;;;;4.64;53.38;102247.48;1680497;85;25444;-58
2022/03/16 11:45:57;;;;;;;;;;;;;;;4.58;53.74;102241.53;1680386;85;25785;-58
2022/03/16 11:48:34;;;;;;;;;;;;;;;4.53;54.16;102245.70;1680873;85;27580;-57
2022/03/16 11:51:16;;;;;;;;;;;;;;;4.48;54.49;102245.89;1680682;85;25697;-58
2022/03/16 11:56:44;;;;;;;;;;;;;;;4.34;54.93;102241.58;1651835;87;25844;-59
2022/03/16 11:59:14;;;;;;;;;;;;;;;4.27;54.86;102246.27;1695368;84;25809;-59
2022/03/16 12:01:42;;;;;;;;;;;;;;;4.27;54.80;102250.73;1679761;84;25892;-57
2022/03/16 12:04:19;;;;;;;;;;;;;;;4.26;55.31;102246.33;1704452;83;25766;-59
2022/03/16 12:07:08;;;;;;;;;;;;;;;4.20;55.66;102242.10;1703603;84;28476;-59
2022/03/16 12:09:46;;;;;;;;;;;;;;;4.15;55.42;102246.75;1703457;84;26308;-58
2022/03/16 12:15:28;;;;;;;;;;;;;;;4.10;55.99;102247.37;1703396;84;25893;-59
2022/03/16 12:18:01;;;;;;;;;;;;;;;4.07;56.35;102245.25;1701924;83;25698;-58
2022/03/16 12:20:40;;;;;;;;;;;;;;;4.04;56.50;102241.36;1706703;83;27487;-58
2022/03/16 12:23:11;;;;;;;;;;;;;;;4.04;56.51;102242.69;1703335;84;26125;-58
2022/03/16 12:25:40;;;;;;;;;;;;;;;4.04;56.68;102249.34;1690793;84;25714;-59
2022/03/16 12:31:09;;;;;;;;;;;;;;;4.13;56.91;102247.27;1658575;85;25729;-58
2022/03/16 12:33:44;;;;;;;;;;;;;;;4.16;56.95;102243.16;1678402;85;27490;-58
2022/03/16 12:36:20;;;;;;;;;;;;;;;4.14;57.37;102241.88;1677135;85;25800;-59
2022/03/16 12:38:49;;;;;;;;;;;;;;;4.16;57.06;102236.03;1678604;85;25753;-59
2022/03/16 12:44:10;;;;;;;;;;;;;;;4.17;57.48;102240.43;1678644;84;25493;-58
2022/03/16 12:46:56;;;;;;;;;;;;;;;4.18;57.46;102250.16;1678613;85;27554;-58
2022/03/16 12:49:24;;;;;;;;;;;;;;;4.20;57.11;102240.77;1674025;85;25671;-58
2022/03/16 12:52:01;;;;;;;;;;;;;;;4.27;57.12;102244.93;1676071;85;25721;-59
2022/03/16 12:54:30;;;;;;;;;;;;;;;4.35;57.04;102256.16;1682769;84;26571;-57
2022/03/16 12:57:05;;;;;;;;;;;;;;;4.38;57.33;102246.72;1693501;84;25524;-58
2022/03/16 12:59:34;;;;;;;;;;;;;;;4.35;57.52;102248.64;1710211;84;27701;-58
2022/03/16 13:02:04;;;;;;;;;;;;;;;4.41;57.12;102251.06;1708135;83;25490;-58
2022/03/16 13:04:31;;;;;;;;;;;;;;;4.49;57.03;102252.11;1708444;84;25757;-58
2022/03/16 13:06:59;;;;;;;;;;;;;;;4.51;57.00;102245.78;1708023;84;25497;-58
2022/03/16 13:09:29;;;;;;;;;;;;;;;4.56;56.90;102250.08;1687247;83;25805;-59
2022/03/16 13:12:11;;;;;;;;;;;;;;;4.61;56.89;102251.63;1660195;85;27612;-57